Time;durP1;ratioP1;P1;durP2;ratioP2;P2;SDS_P1;SDS_P2;PMS_P1;PMS_P2;Temp;Humidity;BMP_temperature;BMP_pressure;BME280_temperature;BME280_humidity;BME280_pressure;Samples;Min_cycle;Max_cycle;Signal;HPM_P1;HPM_P2
2023/12/30 00:00:55;;;;;;;8.80;1.42;;;9.70;99.90;;;;;;5093389;28;20021;-63
2023/12/30 00:03:21;;;;;;;6.80;1.15;;;9.70;99.90;;;;;;5093560;28;20115;-63
2023/12/30 00:05:47;;;;;;;11.80;1.50;;;9.70;99.90;;;;;;5093523;28;20036;-63
2023/12/30 00:08:12;;;;;;;9.40;1.10;;;9.70;99.90;;;;;;5093408;28;20024;-63
2023/12/30 00:10:38;;;;;;;10.35;1.20;;;9.60;99.90;;;;;;5092572;28;20088;-62
2023/12/30 00:13:03;;;;;;;9.27;1.30;;;9.70;99.90;;;;;;5093176;28;20028;-64
2023/12/30 00:15:29;;;;;;;7.93;1.35;;;9.60;99.90;;;;;;5093338;28;20048;-63
2023/12/30 00:17:55;;;;;;;8.35;1.20;;;9.60;99.90;;;;;;5093239;28;20132;-63
2023/12/30 00:20:20;;;;;;;3.92;1.05;;;9.60;99.90;;;;;;5093109;28;20021;-63
2023/12/30 00:22:46;;;;;;;5.88;1.13;;;9.60;99.90;;;;;;5093150;28;20676;-62
2023/12/30 00:25:11;;;;;;;3.47;0.65;;;9.60;99.90;;;;;;5092078;28;20056;-63
2023/12/30 00:27:37;;;;;;;6.43;1.30;;;9.50;99.90;;;;;;5092762;28;20057;-63
2023/12/30 00:30:03;;;;;;;7.03;1.05;;;9.50;99.90;;;;;;5093198;28;20028;-63
2023/12/30 00:32:29;;;;;;;5.50;0.80;;;9.50;99.90;;;;;;5092871;28;20027;-67
2023/12/30 00:34:54;;;;;;;1.70;0.68;;;9.50;99.90;;;;;;5092994;28;20037;-63
2023/12/30 00:37:20;;;;;;;7.35;1.27;;;9.50;99.90;;;;;;5092864;28;20032;-62
2023/12/30 00:39:47;;;;;;;4.07;1.00;;;9.50;99.90;;;;;;5092754;28;20028;-63
2023/12/30 00:42:12;;;;;;;6.75;1.42;;;9.50;99.90;;;;;;5092874;28;20029;-63
2023/12/30 00:44:38;;;;;;;7.68;1.33;;;9.50;99.90;;;;;;5091688;28;20032;-62
2023/12/30 00:47:04;;;;;;;5.05;0.93;;;9.40;99.90;;;;;;5092644;28;20028;-62
2023/12/30 00:49:29;;;;;;;5.78;1.17;;;9.40;99.90;;;;;;5092650;28;20025;-63
2023/12/30 00:51:55;;;;;;;4.35;1.00;;;9.40;99.90;;;;;;5092700;28;20052;-63
2023/12/30 00:54:21;;;;;;;1.77;0.85;;;9.40;99.90;;;;;;5092691;28;20033;-62
2023/12/30 00:56:46;;;;;;;4.05;0.80;;;9.40;99.90;;;;;;5091449;28;20036;-63
2023/12/30 00:59:12;;;;;;;3.00;0.90;;;9.40;99.90;;;;;;5092559;28;20032;-63
2023/12/30 01:01:39;;;;;;;2.95;0.68;;;9.40;99.90;;;;;;5092320;28;20477;-63
2023/12/30 01:04:04;;;;;;;7.63;1.25;;;9.40;99.90;;;;;;5092506;28;20046;-63
2023/12/30 01:06:30;;;;;;;8.60;1.25;;;9.30;99.90;;;;;;5092324;28;20060;-62
2023/12/30 01:08:56;;;;;;;5.47;0.98;;;9.30;99.90;;;;;;5092384;28;20027;-63
2023/12/30 01:11:21;;;;;;;3.30;0.82;;;9.30;99.90;;;;;;5092411;28;20108;-63
2023/12/30 01:13:47;;;;;;;5.60;0.80;;;9.20;99.90;;;;;;5092403;28;20131;-62
2023/12/30 01:16:12;;;;;;;3.30;0.90;;;9.30;99.90;;;;;;5092456;28;20055;-63
2023/12/30 01:18:39;;;;;;;7.05;1.02;;;9.20;99.90;;;;;;5092322;28;20063;-62
2023/12/30 01:21:05;;;;;;;8.68;1.90;;;9.20;99.90;;;;;;5092200;28;20024;-63
2023/12/30 01:23:30;;;;;;;8.32;1.40;;;9.20;99.90;;;;;;5092098;28;20029;-64
2023/12/30 01:25:56;;;;;;;4.45;1.17;;;9.20;99.90;;;;;;5092061;28;20041;-63
2023/12/30 01:28:22;;;;;;;3.78;1.05;;;9.20;99.90;;;;;;5092045;28;20040;-64
2023/12/30 01:30:47;;;;;;;5.72;1.20;;;9.10;99.90;;;;;;5092033;28;20024;-62
2023/12/30 01:33:13;;;;;;;4.75;1.27;;;9.10;99.90;;;;;;5092121;28;20025;-62
2023/12/30 01:35:38;;;;;;;3.97;1.13;;;9.10;99.90;;;;;;5092164;28;20025;-62
2023/12/30 01:38:04;;;;;;;5.50;1.55;;;9.10;99.90;;;;;;5092137;28;20056;-62
2023/12/30 01:40:30;;;;;;;3.53;0.82;;;9.10;99.90;;;;;;5092081;28;20020;-62
2023/12/30 01:42:55;;;;;;;5.60;1.23;;;9.10;99.90;;;;;;5092108;28;20024;-62
2023/12/30 01:45:21;;;;;;;5.93;1.17;;;9.10;99.90;;;;;;5092134;28;20044;-62
2023/12/30 01:47:47;;;;;;;4.47;0.90;;;9.10;99.90;;;;;;5092021;28;20116;-62
2023/12/30 01:50:12;;;;;;;4.97;1.02;;;9.00;99.90;;;;;;5092071;28;20029;-62
2023/12/30 01:52:38;;;;;;;6.43;0.90;;;9.00;99.90;;;;;;5092058;28;20033;-63
2023/12/30 01:55:06;;;;;;;5.88;1.02;;;9.00;99.90;;;;;;5091961;28;20059;-63
2023/12/30 01:57:32;;;;;;;7.10;1.00;;;9.00;99.90;;;;;;5091930;28;20033;-64
2023/12/30 02:00:01;;;;;;;5.78;1.17;;;9.10;99.90;;;;;;5091872;28;20091;-63
2023/12/30 02:02:28;;;;;;;6.93;1.15;;;9.10;99.90;;;;;;5091728;28;20051;-63
2023/12/30 02:04:55;;;;;;;5.20;1.00;;;9.00;99.90;;;;;;5091866;28;20066;-63
2023/12/30 02:07:20;;;;;;;6.63;1.60;;;9.00;99.90;;;;;;5090689;28;20043;-64
2023/12/30 02:09:46;;;;;;;3.70;0.80;;;9.00;99.90;;;;;;5091831;28;20106;-63
2023/12/30 02:12:11;;;;;;;4.63;1.02;;;9.00;99.90;;;;;;5091848;28;20032;-63
2023/12/30 02:14:37;;;;;;;6.18;1.10;;;9.00;99.90;;;;;;5091827;28;20017;-63
2023/12/30 02:17:03;;;;;;;6.30;1.02;;;9.00;99.90;;;;;;5091783;28;20032;-64
2023/12/30 02:19:28;;;;;;;6.50;1.23;;;9.00;99.90;;;;;;5091754;28;20040;-61
2023/12/30 02:21:54;;;;;;;5.20;1.15;;;9.00;99.90;;;;;;5091605;28;20037;-62
2023/12/30 02:24:20;;;;;;;4.90;1.00;;;9.00;99.90;;;;;;5091574;28;20044;-61
2023/12/30 02:26:46;;;;;;;9.10;1.40;;;9.00;99.90;;;;;;5091421;28;20043;-62
2023/12/30 02:29:12;;;;;;;3.50;1.02;;;8.90;99.90;;;;;;5091434;28;20045;-63
2023/12/30 02:31:47;;;;;;;5.97;1.30;;;8.90;99.90;;;;;;5091327;28;20021;-63
2023/12/30 02:34:17;;;;;;;6.57;1.40;;;8.90;99.90;;;;;;5093039;28;20044;-62
2023/12/30 02:36:44;;;;;;;7.32;1.52;;;8.90;99.90;;;;;;5095045;28;20032;-62
2023/12/30 02:39:10;;;;;;;5.55;1.10;;;8.90;99.90;;;;;;5095080;28;20029;-63
2023/12/30 02:41:36;;;;;;;9.80;1.42;;;8.90;99.90;;;;;;5095070;28;20024;-63
2023/12/30 02:44:02;;;;;;;4.95;1.20;;;8.90;99.90;;;;;;5095212;28;20020;-62
2023/12/30 02:46:29;;;;;;;9.57;1.70;;;8.90;99.90;;;;;;5094943;28;20024;-63
2023/12/30 02:48:54;;;;;;;5.57;1.45;;;8.90;99.90;;;;;;5094954;28;20086;-62
2023/12/30 02:51:20;;;;;;;5.80;1.80;;;8.90;99.90;;;;;;5094926;28;20017;-62
2023/12/30 02:53:46;;;;;;;7.97;1.23;;;8.90;99.90;;;;;;5094938;28;20054;-63
2023/12/30 02:56:19;;;;;;;5.75;1.05;;;8.90;99.90;;;;;;5094785;28;20102;-63
2023/12/30 02:58:52;;;;;;;7.90;1.40;;;8.90;99.90;;;;;;5094733;28;20029;-62
2023/12/30 03:01:17;;;;;;;9.10;1.42;;;8.80;99.90;;;;;;5094582;28;20035;-63
2023/12/30 03:03:43;;;;;;;2.42;1.02;;;8.90;99.90;;;;;;5094635;28;20032;-62
2023/12/30 03:06:09;;;;;;;5.55;1.42;;;8.80;99.90;;;;;;5094584;28;20032;-63
2023/12/30 03:08:34;;;;;;;4.93;1.60;;;8.80;99.90;;;;;;5094555;28;20051;-62
2023/12/30 03:11:03;;;;;;;4.20;1.45;;;8.80;99.90;;;;;;5094589;28;20032;-63
2023/12/30 03:13:28;;;;;;;7.97;1.58;;;8.80;99.90;;;;;;5094537;28;20035;-62
2023/12/30 03:15:54;;;;;;;6.38;1.40;;;8.80;99.90;;;;;;5094533;28;20028;-63
2023/12/30 03:18:20;;;;;;;8.13;1.33;;;8.80;99.90;;;;;;5094359;28;20024;-63
2023/12/30 03:20:45;;;;;;;7.75;1.35;;;8.80;99.90;;;;;;5094407;28;20029;-63
2023/12/30 03:23:11;;;;;;;6.97;1.77;;;8.80;99.90;;;;;;5094274;28;20033;-63
2023/12/30 03:25:37;;;;;;;8.95;1.40;;;8.80;99.90;;;;;;5093280;28;20064;-63
2023/12/30 03:28:03;;;;;;;8.23;2.00;;;8.80;99.90;;;;;;5094065;28;20033;-63
2023/12/30 03:30:28;;;;;;;6.47;1.58;;;8.80;99.90;;;;;;5093212;28;20036;-63
2023/12/30 03:32:54;;;;;;;7.30;2.22;;;8.80;99.90;;;;;;5093926;28;20021;-64
2023/12/30 03:35:19;;;;;;;9.63;1.88;;;8.80;99.90;;;;;;5094058;28;20453;-62
2023/12/30 03:37:45;;;;;;;6.78;1.88;;;8.90;99.90;;;;;;5094064;28;20039;-64
2023/12/30 03:40:11;;;;;;;5.70;2.17;;;8.80;99.90;;;;;;5094038;28;20025;-64
2023/12/30 03:42:37;;;;;;;9.88;2.55;;;8.90;99.90;;;;;;5093956;28;20028;-62
2023/12/30 03:45:04;;;;;;;8.02;2.00;;;8.80;99.90;;;;;;5093880;28;20092;-63
2023/12/30 03:47:30;;;;;;;6.15;1.95;;;8.80;99.90;;;;;;5093652;28;20020;-63
2023/12/30 03:49:56;;;;;;;9.82;2.33;;;8.80;99.90;;;;;;5093865;28;20040;-63
2023/12/30 03:52:21;;;;;;;12.10;2.47;;;8.80;99.90;;;;;;5093863;28;20047;-63
2023/12/30 03:54:47;;;;;;;8.95;2.50;;;8.80;99.90;;;;;;5093882;28;20029;-62
2023/12/30 03:57:13;;;;;;;7.20;2.28;;;8.70;99.90;;;;;;5093605;28;20047;-62
2023/12/30 03:59:39;;;;;;;6.70;2.15;;;8.70;99.90;;;;;;5093552;28;20063;-63
2023/12/30 04:02:05;;;;;;;6.32;1.90;;;8.70;99.90;;;;;;5093323;28;20033;-62
2023/12/30 04:04:30;;;;;;;9.57;2.03;;;8.70;99.90;;;;;;5093493;28;20025;-62
2023/12/30 04:06:56;;;;;;;6.85;1.27;;;8.70;99.90;;;;;;5093496;28;20032;-63
2023/12/30 04:09:21;;;;;;;8.10;1.90;;;8.70;99.90;;;;;;5093362;28;20035;-63
2023/12/30 04:11:47;;;;;;;8.20;1.77;;;8.60;99.90;;;;;;5093402;28;20143;-63
2023/12/30 04:14:12;;;;;;;7.75;1.73;;;8.60;99.90;;;;;;5093298;28;20036;-62
2023/12/30 04:16:38;;;;;;;10.13;1.52;;;8.60;99.90;;;;;;5093123;28;20036;-62
2023/12/30 04:19:04;;;;;;;9.70;1.95;;;8.60;99.90;;;;;;5093202;28;20055;-62
2023/12/30 04:21:29;;;;;;;6.95;1.63;;;8.50;99.90;;;;;;5092103;28;20036;-63
2023/12/30 04:23:55;;;;;;;12.63;2.10;;;8.50;99.90;;;;;;5093154;28;20043;-62
2023/12/30 04:26:20;;;;;;;10.90;1.50;;;8.50;99.90;;;;;;5093005;28;20037;-64
2023/12/30 04:28:46;;;;;;;8.00;1.52;;;8.50;99.90;;;;;;5092994;28;20057;-63
2023/12/30 04:31:12;;;;;;;7.60;1.67;;;8.50;99.90;;;;;;5092743;28;20080;-63
2023/12/30 04:33:37;;;;;;;7.75;1.27;;;8.50;99.90;;;;;;5092969;28;20032;-63
2023/12/30 04:36:03;;;;;;;4.60;1.48;;;8.50;99.90;;;;;;5092998;28;20036;-63
2023/12/30 04:38:29;;;;;;;9.15;1.75;;;8.50;99.90;;;;;;5092745;28;20092;-62
2023/12/30 04:40:56;;;;;;;9.68;1.30;;;8.50;99.90;;;;;;5092838;28;20092;-63
2023/12/30 04:43:21;;;;;;;6.40;1.63;;;8.50;99.90;;;;;;5092796;28;20035;-64
2023/12/30 04:45:47;;;;;;;8.93;1.65;;;8.50;99.90;;;;;;5092618;28;20028;-63
2023/12/30 04:48:12;;;;;;;4.93;1.02;;;8.40;99.90;;;;;;5092684;28;20036;-62
2023/12/30 04:50:38;;;;;;;12.52;1.60;;;8.40;99.90;;;;;;5092697;28;20040;-63
2023/12/30 04:53:04;;;;;;;7.55;1.20;;;8.40;99.90;;;;;;5092738;28;20016;-63
2023/12/30 04:55:29;;;;;;;6.97;1.20;;;8.40;99.90;;;;;;5092594;28;20020;-63
2023/12/30 04:57:55;;;;;;;6.25;1.10;;;8.40;99.90;;;;;;5092186;28;20032;-63
2023/12/30 05:00:21;;;;;;;10.77;1.88;;;8.40;99.90;;;;;;5092454;28;20028;-63
2023/12/30 05:02:46;;;;;;;5.50;0.95;;;8.30;99.90;;;;;;5092262;28;20467;-63
2023/12/30 05:05:12;;;;;;;10.88;1.15;;;8.30;99.90;;;;;;5092473;28;20051;-63
2023/12/30 05:07:37;;;;;;;10.90;1.20;;;8.30;99.90;;;;;;5092327;28;20111;-63
2023/12/30 05:10:04;;;;;;;4.70;0.80;;;8.30;99.90;;;;;;5091320;28;20052;-62
2023/12/30 05:12:29;;;;;;;7.47;1.40;;;8.30;99.90;;;;;;5092391;28;20028;-62
2023/12/30 05:14:55;;;;;;;4.53;0.77;;;8.20;99.90;;;;;;5092318;28;20051;-63
2023/12/30 05:17:20;;;;;;;3.28;0.95;;;8.20;99.90;;;;;;5092344;28;20029;-62
2023/12/30 05:19:46;;;;;;;7.57;1.52;;;8.20;99.90;;;;;;5091226;28;20063;-62
2023/12/30 05:22:11;;;;;;;15.40;1.58;;;8.20;99.90;;;;;;5092294;28;20046;-63
2023/12/30 05:24:37;;;;;;;8.18;1.27;;;8.20;99.90;;;;;;5092353;28;20036;-63
2023/12/30 05:27:03;;;;;;;4.70;1.55;;;8.20;99.90;;;;;;5090963;28;20033;-63
2023/12/30 05:29:28;;;;;;;6.90;0.95;;;8.10;99.90;;;;;;5092143;28;20035;-63
2023/12/30 05:31:54;;;;;;;6.40;0.90;;;8.10;99.90;;;;;;5092002;28;20419;-64
2023/12/30 05:34:20;;;;;;;10.30;1.17;;;8.10;99.90;;;;;;5092161;28;20029;-63
2023/12/30 05:36:45;;;;;;;9.93;1.13;;;8.10;99.90;;;;;;5092172;28;20028;-64
2023/12/30 05:39:13;;;;;;;5.47;1.15;;;8.10;99.90;;;;;;5092121;28;20032;-63
2023/12/30 05:41:39;;;;;;;7.20;0.98;;;8.10;99.90;;;;;;5092101;28;20033;-64
2023/12/30 05:44:04;;;;;;;6.10;1.33;;;8.10;99.90;;;;;;5092009;28;20025;-63
2023/12/30 05:46:31;;;;;;;6.75;1.25;;;8.10;99.90;;;;;;5091925;28;20068;-63
2023/12/30 05:48:57;;;;;;;9.45;1.73;;;8.10;99.90;;;;;;5091949;28;20021;-64
2023/12/30 05:51:22;;;;;;;9.68;1.20;;;8.10;99.90;;;;;;5092023;28;20080;-63
2023/12/30 05:53:48;;;;;;;7.93;1.10;;;8.10;99.90;;;;;;5092015;28;20119;-61
2023/12/30 05:56:24;;;;;;;8.23;1.70;;;8.10;99.90;;;;;;5091951;28;20028;-62
2023/12/30 05:58:52;;;;;;;11.40;1.40;;;8.10;99.90;;;;;;5091841;28;20029;-63
2023/12/30 06:01:17;;;;;;;7.25;1.15;;;8.10;99.90;;;;;;5091782;28;20025;-63
2023/12/30 06:03:43;;;;;;;11.18;1.30;;;8.10;99.90;;;;;;5091940;28;20040;-63
2023/12/30 06:06:08;;;;;;;6.13;1.00;;;8.10;99.90;;;;;;5091811;28;20501;-62
2023/12/30 06:08:34;;;;;;;8.02;1.75;;;8.10;99.90;;;;;;5092365;28;20032;-63
2023/12/30 06:11:00;;;;;;;8.10;1.80;;;8.10;99.90;;;;;;5095711;28;20035;-63
2023/12/30 06:13:25;;;;;;;12.25;1.50;;;8.10;99.90;;;;;;5095591;28;20024;-63
2023/12/30 06:15:51;;;;;;;8.95;1.38;;;8.10;99.90;;;;;;5095660;28;20044;-62
2023/12/30 06:18:18;;;;;;;8.20;1.60;;;8.10;99.90;;;;;;5095503;28;20029;-63
2023/12/30 06:20:46;;;;;;;4.82;0.90;;;8.10;99.90;;;;;;5095474;28;20016;-63
2023/12/30 06:23:13;;;;;;;5.68;0.88;;;8.10;99.90;;;;;;5095459;28;20052;-63
2023/12/30 06:25:39;;;;;;;8.02;1.17;;;8.10;99.90;;;;;;5095345;28;20043;-63
2023/12/30 06:28:05;;;;;;;7.57;1.52;;;8.10;99.90;;;;;;5094149;28;20045;-63
2023/12/30 06:30:30;;;;;;;16.75;2.08;;;8.10;99.90;;;;;;5095286;28;20051;-63
2023/12/30 06:32:56;;;;;;;7.15;1.23;;;8.10;99.90;;;;;;5094052;28;20028;-64
2023/12/30 06:35:22;;;;;;;7.43;1.48;;;8.00;99.90;;;;;;5095193;28;20060;-64
2023/12/30 06:37:48;;;;;;;7.97;1.08;;;8.00;99.90;;;;;;5095205;28;20028;-63
2023/12/30 06:40:13;;;;;;;6.07;1.45;;;8.00;99.90;;;;;;5095150;28;20052;-62
2023/12/30 06:42:39;;;;;;;10.02;1.50;;;8.00;99.90;;;;;;5095079;28;20066;-63
2023/12/30 06:45:05;;;;;;;6.65;1.38;;;8.00;99.90;;;;;;5095082;28;20028;-63
2023/12/30 06:47:31;;;;;;;5.75;0.95;;;8.00;99.90;;;;;;5094988;28;20037;-63
2023/12/30 06:49:57;;;;;;;4.55;1.00;;;8.00;99.90;;;;;;5095077;28;20035;-63
2023/12/30 06:52:23;;;;;;;10.98;1.20;;;8.00;99.90;;;;;;5094015;28;20111;-63
2023/12/30 06:54:49;;;;;;;9.23;1.52;;;8.00;99.90;;;;;;5094901;28;20032;-63
2023/12/30 06:57:14;;;;;;;5.93;1.48;;;8.00;99.90;;;;;;5094921;28;20099;-63
2023/12/30 06:59:40;;;;;;;10.52;1.55;;;8.00;99.90;;;;;;5094819;28;20060;-63
2023/12/30 07:02:06;;;;;;;8.73;1.73;;;8.00;99.90;;;;;;5094616;28;20060;-64
2023/12/30 07:04:31;;;;;;;10.10;1.40;;;8.00;99.90;;;;;;5094810;28;20039;-63
2023/12/30 07:06:57;;;;;;;10.00;1.15;;;8.00;99.90;;;;;;5094647;28;20056;-62
2023/12/30 07:09:22;;;;;;;7.07;1.17;;;8.00;99.90;;;;;;5094629;28;20025;-64
2023/12/30 07:11:48;;;;;;;10.43;1.70;;;8.00;99.90;;;;;;5094589;28;20036;-63
2023/12/30 07:14:14;;;;;;;13.10;3.08;;;8.00;99.90;;;;;;5094515;28;20025;-63
2023/12/30 07:16:40;;;;;;;16.35;3.35;;;8.00;99.90;;;;;;5094577;28;20028;-62
2023/12/30 07:19:06;;;;;;;13.10;4.38;;;8.00;99.90;;;;;;5094384;28;20021;-63
2023/12/30 07:21:31;;;;;;;7.90;1.65;;;8.00;99.90;;;;;;5094191;28;20029;-64
2023/12/30 07:23:57;;;;;;;7.72;2.17;;;8.00;99.90;;;;;;5094283;28;20088;-64
2023/12/30 07:26:23;;;;;;;4.70;1.17;;;8.00;99.90;;;;;;5094062;28;20032;-62
2023/12/30 07:28:48;;;;;;;4.43;1.10;;;8.10;99.90;;;;;;5094234;28;20138;-63
2023/12/30 07:31:15;;;;;;;10.43;1.27;;;8.10;99.90;;;;;;5094171;28;20039;-63
2023/12/30 07:33:41;;;;;;;6.28;0.98;;;8.10;99.90;;;;;;5094161;28;20013;-63
2023/12/30 07:36:07;;;;;;;5.50;1.00;;;8.10;99.90;;;;;;5094278;28;20049;-63
2023/12/30 07:38:33;;;;;;;8.93;1.45;;;8.10;99.90;;;;;;5093041;28;20116;-64
2023/12/30 07:40:59;;;;;;;7.63;1.17;;;8.10;99.90;;;;;;5093955;28;20033;-64
2023/12/30 07:43:25;;;;;;;9.35;1.40;;;8.10;99.90;;;;;;5093972;28;20029;-64
2023/12/30 07:45:50;;;;;;;4.40;0.95;;;8.00;99.90;;;;;;5093946;28;20020;-65
2023/12/30 07:48:16;;;;;;;4.93;1.73;;;8.00;99.90;;;;;;5093910;28;20084;-65
2023/12/30 07:50:41;;;;;;;13.95;1.83;;;8.00;99.90;;;;;;5093854;28;20025;-65
2023/12/30 07:53:08;;;;;;;6.47;1.58;;;8.00;99.90;;;;;;5093711;28;20036;-64
2023/12/30 07:55:33;;;;;;;7.80;1.52;;;8.00;99.90;;;;;;5079622;28;20048;-66
2023/12/30 07:57:59;;;;;;;8.00;1.00;;;8.00;99.90;;;;;;5071644;28;20040;-64
2023/12/30 08:00:25;;;;;;;6.28;1.13;;;8.00;99.90;;;;;;5071464;28;20040;-65
2023/12/30 08:02:50;;;;;;;3.40;1.02;;;8.00;99.90;;;;;;5072418;28;20029;-66
2023/12/30 08:05:17;;;;;;;9.10;1.40;;;8.00;99.90;;;;;;5071921;28;20025;-65
2023/12/30 08:07:43;;;;;;;5.75;1.48;;;8.00;99.90;;;;;;5071677;28;20036;-65
2023/12/30 08:10:11;;;;;;;13.65;1.75;;;8.10;99.90;;;;;;5073302;28;20036;-65
2023/12/30 08:12:37;;;;;;;7.53;1.15;;;8.10;99.90;;;;;;5072407;28;20024;-65
2023/12/30 08:15:04;;;;;;;13.27;1.25;;;8.10;99.90;;;;;;5073274;28;20048;-65
2023/12/30 08:17:30;;;;;;;5.07;1.08;;;8.10;99.90;;;;;;5073286;28;20029;-65
2023/12/30 08:19:56;;;;;;;3.28;0.82;;;8.10;99.90;;;;;;5072215;28;20029;-65
2023/12/30 08:22:23;;;;;;;7.07;1.02;;;8.10;99.90;;;;;;5073090;28;20025;-65
2023/12/30 08:24:50;;;;;;;9.02;1.40;;;8.20;99.90;;;;;;5073087;28;20025;-66
2023/12/30 08:27:16;;;;;;;13.07;1.45;;;8.20;99.90;;;;;;5072871;28;20064;-64
2023/12/30 08:29:42;;;;;;;3.40;0.82;;;8.30;99.90;;;;;;5073006;28;20029;-64
2023/12/30 08:32:07;;;;;;;8.65;1.35;;;8.30;99.90;;;;;;5072117;28;20029;-64
2023/12/30 08:34:33;;;;;;;4.18;0.98;;;8.30;99.90;;;;;;5072822;28;20025;-64
2023/12/30 08:37:00;;;;;;;8.10;1.05;;;8.40;99.90;;;;;;5072860;28;20025;-63
2023/12/30 08:39:25;;;;;;;13.77;1.38;;;8.40;99.90;;;;;;5072903;28;20028;-64
2023/12/30 08:41:52;;;;;;;8.57;1.30;;;8.40;99.90;;;;;;5072869;28;20055;-64
2023/12/30 08:44:17;;;;;;;8.10;1.10;;;8.50;99.90;;;;;;5072696;28;20017;-64
2023/12/30 08:46:43;;;;;;;4.72;1.20;;;8.50;99.90;;;;;;5072538;28;20058;-65
2023/12/30 08:49:09;;;;;;;5.57;1.05;;;8.50;99.90;;;;;;5072738;28;20085;-64
2023/12/30 08:51:34;;;;;;;5.32;1.02;;;8.50;99.90;;;;;;5072543;28;20028;-65
2023/12/30 08:54:00;;;;;;;11.25;1.42;;;8.50;99.90;;;;;;5072542;28;20033;-65
2023/12/30 08:56:34;;;;;;;7.60;1.60;;;8.60;99.90;;;;;;5072501;28;20048;-65
2023/12/30 08:59:00;;;;;;;11.05;1.40;;;8.60;99.90;;;;;;5072473;28;20033;-65
2023/12/30 09:01:26;;;;;;;8.77;1.38;;;8.60;99.90;;;;;;5072318;28;20036;-64
2023/12/30 09:03:51;;;;;;;6.60;1.70;;;8.60;99.90;;;;;;5072394;28;20063;-65
2023/12/30 09:06:17;;;;;;;8.95;1.55;;;8.60;99.90;;;;;;5072290;28;20029;-65
2023/12/30 09:08:43;;;;;;;11.60;1.50;;;8.60;99.90;;;;;;5072466;28;20025;-64
2023/12/30 09:11:22;;;;;;;10.65;2.58;;;8.70;99.90;;;;;;5072392;28;20051;-63
2023/12/30 09:13:48;;;;;;;11.43;1.98;;;8.70;99.90;;;;;;5072335;28;20028;-65
2023/12/30 09:16:14;;;;;;;9.57;1.95;;;8.70;99.90;;;;;;5072281;28;20028;-65
2023/12/30 09:18:40;;;;;;;3.95;1.33;;;8.70;99.90;;;;;;5072077;28;20051;-65
2023/12/30 09:21:05;;;;;;;12.63;2.03;;;8.80;99.90;;;;;;5072143;28;20051;-64
2023/12/30 09:23:32;;;;;;;8.25;1.58;;;8.80;99.90;;;;;;5072179;28;20048;-66
2023/12/30 09:25:57;;;;;;;7.50;1.50;;;8.80;99.90;;;;;;5072055;28;20036;-64
2023/12/30 09:28:23;;;;;;;7.70;1.80;;;8.80;99.90;;;;;;5071978;28;20053;-63
2023/12/30 09:30:49;;;;;;;9.05;1.63;;;8.80;99.90;;;;;;5071837;28;20044;-64
2023/12/30 09:33:14;;;;;;;7.22;1.63;;;8.80;99.90;;;;;;5071974;28;20033;-64
2023/12/30 09:35:40;;;;;;;9.50;1.83;;;8.90;99.90;;;;;;5071929;28;20060;-64
2023/12/30 09:38:05;;;;;;;16.33;3.05;;;8.90;99.90;;;;;;5072013;28;20021;-65
2023/12/30 09:40:31;;;;;;;11.70;2.05;;;8.90;99.90;;;;;;5071958;28;20395;-64
2023/12/30 09:43:03;;;;;;;7.60;1.95;;;8.90;99.90;;;;;;5073244;28;20033;-64
2023/12/30 09:45:30;;;;;;;12.68;1.73;;;9.00;99.90;;;;;;5076289;28;20475;-64
2023/12/30 09:47:58;;;;;;;7.97;1.88;;;9.00;99.90;;;;;;5076033;28;20032;-65
2023/12/30 09:50:24;;;;;;;13.30;2.30;;;9.00;99.90;;;;;;5076053;28;20375;-64
2023/12/30 09:52:49;;;;;;;11.05;1.90;;;9.10;99.90;;;;;;5075974;28;20035;-64
2023/12/30 09:55:15;;;;;;;10.27;1.73;;;9.00;99.90;;;;;;5075890;28;20029;-64
2023/12/30 09:57:41;;;;;;;9.02;2.45;;;9.10;99.90;;;;;;5075910;28;20041;-64
2023/12/30 10:00:08;;;;;;;14.00;3.08;;;9.10;99.90;;;;;;5075903;28;20088;-64
2023/12/30 10:02:35;;;;;;;9.30;3.10;;;9.10;99.90;;;;;;5075668;28;20052;-64
2023/12/30 10:05:01;;;;;;;9.70;2.92;;;9.10;99.90;;;;;;5075703;28;20025;-64
2023/12/30 10:07:31;;;;;;;9.40;2.60;;;9.10;99.90;;;;;;5075637;28;20047;-64
2023/12/30 10:09:57;;;;;;;6.20;2.28;;;9.20;99.90;;;;;;5075654;28;20021;-64
2023/12/30 10:12:23;;;;;;;6.65;2.08;;;9.20;99.90;;;;;;5075665;28;20029;-64
2023/12/30 10:14:48;;;;;;;12.30;2.67;;;9.30;99.90;;;;;;5075549;28;20085;-64
2023/12/30 10:17:14;;;;;;;20.85;6.13;;;9.30;99.90;;;;;;5074522;28;20033;-64
2023/12/30 10:19:40;;;;;;;7.93;2.90;;;9.30;99.90;;;;;;5074478;28;20037;-65
2023/12/30 10:22:06;;;;;;;8.38;2.45;;;9.30;99.90;;;;;;5075557;28;20021;-64
2023/12/30 10:24:31;;;;;;;13.68;3.03;;;9.30;99.90;;;;;;5075321;28;20055;-64
2023/12/30 10:27:03;;;;;;;9.18;2.35;;;9.30;99.90;;;;;;5075108;28;20036;-64
2023/12/30 10:29:29;;;;;;;7.47;2.40;;;9.30;99.90;;;;;;5075346;28;20033;-65
2023/12/30 10:32:00;;;;;;;10.15;2.70;;;9.40;99.90;;;;;;5075026;28;20021;-65
2023/12/30 10:34:26;;;;;;;10.03;3.17;;;9.40;99.90;;;;;;5075276;28;20029;-64
2023/12/30 10:36:52;;;;;;;13.55;3.10;;;9.40;99.90;;;;;;5075234;28;20086;-65
2023/12/30 10:39:22;;;;;;;9.27;2.70;;;9.40;99.90;;;;;;5075188;28;20039;-64
2023/12/30 10:41:48;;;;;;;8.95;3.00;;;9.50;99.90;;;;;;5089826;28;20028;-65
2023/12/30 10:44:13;;;;;;;10.48;3.00;;;9.50;99.90;;;;;;5095086;28;20073;-65
2023/12/30 10:46:40;;;;;;;10.38;2.60;;;9.50;99.90;;;;;;5095054;28;20036;-64
2023/12/30 10:49:08;;;;;;;9.43;3.05;;;9.60;99.90;;;;;;5093487;28;20021;-66
2023/12/30 10:51:34;;;;;;;11.35;2.90;;;9.60;99.90;;;;;;5093060;28;20012;-65
2023/12/30 10:54:04;;;;;;;13.88;3.25;;;9.60;99.90;;;;;;5092670;28;20029;-66
2023/12/30 10:56:39;;;;;;;10.18;2.65;;;9.70;99.90;;;;;;5092745;28;20033;-66
2023/12/30 10:59:07;;;;;;;9.68;2.88;;;9.70;99.90;;;;;;5093140;28;20017;-65
2023/12/30 11:01:33;;;;;;;9.27;2.88;;;9.70;99.90;;;;;;5092591;28;20036;-65
2023/12/30 11:04:11;;;;;;;11.05;3.17;;;9.80;99.90;;;;;;5093532;28;20033;-65
2023/12/30 11:06:48;;;;;;;11.90;2.90;;;9.80;99.90;;;;;;5094453;28;20032;-65
2023/12/30 11:09:14;;;;;;;12.10;3.20;;;9.90;99.90;;;;;;5094240;28;20052;-65
2023/12/30 11:11:51;;;;;;;11.52;3.20;;;9.90;99.90;;;;;;5094409;28;20048;-65
2023/12/30 11:14:17;;;;;;;12.75;3.35;;;9.90;99.90;;;;;;5094542;28;20023;-65
2023/12/30 11:16:44;;;;;;;14.48;2.78;;;9.90;99.90;;;;;;5094242;28;20029;-65
2023/12/30 11:19:09;;;;;;;9.23;2.85;;;10.00;99.90;;;;;;5094181;28;20105;-65
2023/12/30 11:21:43;;;;;;;16.65;3.33;;;10.00;99.90;;;;;;5093949;28;20025;-65
2023/12/30 11:24:20;;;;;;;9.50;2.50;;;10.00;99.90;;;;;;5094044;28;20032;-65
2023/12/30 11:26:46;;;;;;;9.48;2.67;;;10.00;99.90;;;;;;5074601;28;20041;-64
2023/12/30 11:29:18;;;;;;;10.32;2.30;;;10.10;99.90;;;;;;5072066;28;20076;-65
2023/12/30 11:31:49;;;;;;;12.43;3.88;;;10.10;99.90;;;;;;5072299;28;20051;-64
2023/12/30 11:34:15;;;;;;;15.00;3.20;;;10.10;99.90;;;;;;5073611;28;20021;-65
2023/12/30 11:36:41;;;;;;;11.82;4.35;;;10.10;99.90;;;;;;5074081;28;20092;-64
2023/12/30 11:39:08;;;;;;;15.90;3.60;;;10.10;99.90;;;;;;5074101;28;20060;-64
2023/12/30 11:41:34;;;;;;;18.33;4.28;;;10.20;99.90;;;;;;5073957;28;20059;-65
2023/12/30 11:44:03;;;;;;;13.02;3.47;;;10.10;99.90;;;;;;5073929;28;20097;-64
2023/12/30 11:46:29;;;;;;;14.02;3.78;;;10.20;99.90;;;;;;5073768;28;20032;-65
2023/12/30 11:48:58;;;;;;;11.00;3.60;;;10.20;99.90;;;;;;5073888;28;20017;-64
2023/12/30 11:51:26;;;;;;;13.05;4.03;;;10.20;99.90;;;;;;5073749;28;20029;-64
2023/12/30 11:53:51;;;;;;;10.23;3.65;;;10.20;99.90;;;;;;5073810;28;20021;-65
2023/12/30 11:56:22;;;;;;;14.27;3.90;;;10.30;99.90;;;;;;5073678;28;20025;-65
2023/12/30 11:58:49;;;;;;;11.60;4.20;;;10.30;99.90;;;;;;5073613;28;20092;-64
2023/12/30 12:01:15;;;;;;;9.00;3.60;;;10.40;99.90;;;;;;5073277;28;20426;-64
2023/12/30 12:03:41;;;;;;;13.05;3.88;;;10.40;99.90;;;;;;5073454;28;20029;-64
2023/12/30 12:06:10;;;;;;;11.88;4.38;;;10.50;99.90;;;;;;5072471;28;20048;-64
2023/12/30 12:08:36;;;;;;;11.80;4.05;;;10.50;99.90;;;;;;5073413;28;20037;-64
2023/12/30 12:11:02;;;;;;;16.75;4.63;;;10.50;99.90;;;;;;5073390;28;20073;-66
2023/12/30 12:13:28;;;;;;;16.92;4.60;;;10.60;99.90;;;;;;5073408;28;20017;-65
2023/12/30 12:15:55;;;;;;;14.65;4.25;;;10.60;99.90;;;;;;5073184;28;20036;-65
2023/12/30 12:18:22;;;;;;;11.88;3.50;;;10.70;99.90;;;;;;5073269;28;20025;-65
2023/12/30 12:20:49;;;;;;;9.85;3.63;;;10.70;99.90;;;;;;5073113;28;20049;-65
2023/12/30 12:23:16;;;;;;;10.88;3.72;;;10.70;99.90;;;;;;5073139;28;20043;-65
2023/12/30 12:25:43;;;;;;;9.80;3.25;;;10.80;99.90;;;;;;5073002;28;20036;-64
2023/12/30 12:28:14;;;;;;;11.07;2.83;;;10.80;99.90;;;;;;5072776;28;20041;-64
2023/12/30 12:30:40;;;;;;;8.15;3.10;;;10.80;99.90;;;;;;5072828;28;20021;-65
2023/12/30 12:33:07;;;;;;;12.55;3.38;;;10.80;99.90;;;;;;5073089;28;20048;-64
2023/12/30 12:35:33;;;;;;;6.32;2.80;;;10.80;99.90;;;;;;5072978;28;20087;-64
2023/12/30 12:37:59;;;;;;;11.93;3.78;;;10.80;99.90;;;;;;5072900;28;20029;-65
2023/12/30 12:40:25;;;;;;;10.88;3.58;;;10.80;99.90;;;;;;5072782;28;20025;-65
2023/12/30 12:42:51;;;;;;;9.32;3.50;;;10.90;99.90;;;;;;5072646;28;20074;-65
2023/12/30 12:45:16;;;;;;;8.88;3.97;;;10.90;99.90;;;;;;5072736;28;20029;-66
2023/12/30 12:47:42;;;;;;;12.32;3.72;;;10.90;99.90;;;;;;5072571;28;20033;-64